createdAt,value
2018-07-16T00:00:16.745Z,2.00
2018-07-16T00:01:16.735Z,2.10
2018-07-16T00:02:16.738Z,2.80
2018-07-16T00:03:16.712Z,2.60
2018-07-16T00:04:16.698Z,3.60
2018-07-16T00:05:16.687Z,4.80
2018-07-16T00:06:16.678Z,5.80
2018-07-16T00:07:16.662Z,5.90
2018-07-16T00:08:16.669Z,2.30
2018-07-16T00:09:16.644Z,4.30
2018-07-16T00:10:16.630Z,2.50
2018-07-16T00:11:16.620Z,3.30
2018-07-16T00:12:16.624Z,3.30
2018-07-16T00:13:16.596Z,2.50
2018-07-16T00:14:16.587Z,4.10
2018-07-16T00:15:16.572Z,3.70
2018-07-16T00:16:16.558Z,2.10
2018-07-16T00:17:16.552Z,1.90
2018-07-16T00:18:16.555Z,2.60
2018-07-16T00:19:16.528Z,2.60
2018-07-16T00:20:16.516Z,3.90
2018-07-16T00:21:16.518Z,3.20
2018-07-16T00:22:16.491Z,4.80
2018-07-16T00:23:16.483Z,5.30
2018-07-16T00:24:16.468Z,3.40
2018-07-16T00:25:16.457Z,4.30
2018-07-16T00:26:16.445Z,6.10
2018-07-16T00:27:16.449Z,4.70
2018-07-16T00:28:16.421Z,4.70
2018-07-16T00:29:16.424Z,3.50
2018-07-16T00:30:16.398Z,1.70
2018-07-16T00:31:16.393Z,4.50
2018-07-16T00:32:16.376Z,4.00
2018-07-16T00:33:16.384Z,3.70
2018-07-16T00:34:16.349Z,3.90
2018-07-16T00:35:16.347Z,5.00
2018-07-16T00:36:16.330Z,3.40
2018-07-16T00:37:16.317Z,3.50
2018-07-16T00:38:16.306Z,2.70
2018-07-16T00:39:16.309Z,2.80
2018-07-16T00:40:16.281Z,3.60
2018-07-16T00:41:16.266Z,3.30
2018-07-16T00:42:16.257Z,2.40
2018-07-16T00:43:16.251Z,2.60
2018-07-16T00:44:16.275Z,2.60
2018-07-16T00:45:16.239Z,2.00
2018-07-16T00:46:16.211Z,2.10
2018-07-16T00:47:16.200Z,3.50
2018-07-16T00:48:16.187Z,5.90
2018-07-16T00:49:16.176Z,2.60
2018-07-16T00:50:16.178Z,5.50
2018-07-16T00:51:16.164Z,3.70
2018-07-16T00:52:16.139Z,2.80
2018-07-16T00:53:16.128Z,3.40
2018-07-16T00:54:16.116Z,2.20
2018-07-16T00:55:16.120Z,3.20
2018-07-16T00:56:16.093Z,2.30
2018-07-16T00:57:16.094Z,2.40
2018-07-16T00:58:16.072Z,3.60
2018-07-16T00:59:16.062Z,1.50
2018-07-16T01:00:16.046Z,3.40
2018-07-16T01:01:16.048Z,3.80
2018-07-16T01:02:16.020Z,3.60
2018-07-16T01:03:16.011Z,3.70
2018-07-16T01:04:15.997Z,2.60
2018-07-16T01:05:15.987Z,5.40
2018-07-16T01:06:15.990Z,6.10
2018-07-16T01:07:15.960Z,2.80
2018-07-16T01:08:15.967Z,1.50
2018-07-16T01:09:15.941Z,1.40
2018-07-16T01:10:15.929Z,2.90
2018-07-16T01:11:15.910Z,3.20
2018-07-16T01:12:15.903Z,4.20
2018-07-16T01:13:15.906Z,2.20
2018-07-16T01:14:15.878Z,2.00
2018-07-16T01:15:15.865Z,2.10
2018-07-16T01:16:15.853Z,2.50
2018-07-16T01:17:15.854Z,2.20
2018-07-16T01:18:15.846Z,1.70
2018-07-16T01:19:15.816Z,1.50
2018-07-16T01:20:15.803Z,2.00
2018-07-16T01:21:15.789Z,1.50
2018-07-16T01:22:15.781Z,1.50
2018-07-16T01:23:15.772Z,1.60
2018-07-16T01:24:15.770Z,1.70
2018-07-16T01:25:15.739Z,1.90
2018-07-16T01:26:15.733Z,1.60
2018-07-16T01:27:15.721Z,3.40
2018-07-16T01:28:15.710Z,2.10
2018-07-16T01:29:15.712Z,2.00
2018-07-16T01:30:15.681Z,4.60
2018-07-16T01:31:15.672Z,3.00
2018-07-16T01:32:15.658Z,4.40
2018-07-16T01:33:15.646Z,3.50
2018-07-16T01:34:15.635Z,3.80
2018-07-16T01:35:15.639Z,4.20
2018-07-16T01:36:15.613Z,3.20
2018-07-16T01:37:15.598Z,3.10
2018-07-16T01:38:15.591Z,2.70
2018-07-16T01:39:15.574Z,4.60
2018-07-16T01:40:15.572Z,2.00
2018-07-16T01:41:15.550Z,3.90
2018-07-16T01:42:15.537Z,3.10
2018-07-16T01:43:15.527Z,2.60
2018-07-16T01:44:15.513Z,3.10
2018-07-16T01:45:15.496Z,4.30
2018-07-16T01:46:15.505Z,4.50
2018-07-16T01:47:15.486Z,2.20
2018-07-16T01:48:15.464Z,4.30
2018-07-16T01:49:15.455Z,3.10
2018-07-16T01:50:15.439Z,3.00
2018-07-16T01:51:15.439Z,2.30
2018-07-16T01:52:15.414Z,5.90
2018-07-16T01:53:15.400Z,4.50
2018-07-16T01:54:15.394Z,4.60
2018-07-16T01:55:15.394Z,6.10
2018-07-16T01:56:15.363Z,3.50
2018-07-16T01:57:15.368Z,4.20
2018-07-16T01:58:15.341Z,2.70
2018-07-16T01:59:15.333Z,6.20
2018-07-16T02:00:15.314Z,2.60
2018-07-16T02:01:15.307Z,4.60
2018-07-16T02:02:15.310Z,3.00
2018-07-16T02:03:15.279Z,3.30
2018-07-16T02:04:15.268Z,2.90
2018-07-16T02:05:15.256Z,3.90
2018-07-16T02:06:15.238Z,3.20
2018-07-16T02:07:15.230Z,3.60
2018-07-16T02:08:15.229Z,4.30
2018-07-16T02:09:15.209Z,6.10
2018-07-16T02:10:15.192Z,5.80
2018-07-16T02:11:15.179Z,7.40
2018-07-16T02:12:15.185Z,5.30
2018-07-16T02:13:15.172Z,4.20
2018-07-16T02:14:15.147Z,4.90
2018-07-16T02:15:15.134Z,4.50
2018-07-16T02:16:15.119Z,3.50
2018-07-16T02:17:15.106Z,4.20
2018-07-16T02:18:15.095Z,4.50
2018-07-16T02:19:15.098Z,2.80
2018-07-16T02:20:15.070Z,3.20
2018-07-16T02:21:15.056Z,3.80
2018-07-16T02:22:15.046Z,4.50
2018-07-16T02:23:15.037Z,4.70
2018-07-16T02:24:15.037Z,2.80
2018-07-16T02:25:15.009Z,4.70
2018-07-16T02:26:14.998Z,2.60
2018-07-16T02:27:14.983Z,4.60
2018-07-16T02:28:14.971Z,5.00
2018-07-16T02:29:14.971Z,3.30
2018-07-16T02:30:14.947Z,6.60
2018-07-16T02:31:14.936Z,5.90
2018-07-16T02:32:14.921Z,6.20
2018-07-16T02:33:14.909Z,3.60
2018-07-16T02:34:14.914Z,6.40
2018-07-16T02:35:14.884Z,3.00
2018-07-16T02:36:14.873Z,3.70
2018-07-16T02:37:14.862Z,5.10
2018-07-16T02:38:14.848Z,3.70
2018-07-16T02:39:14.838Z,3.00
2018-07-16T02:40:14.840Z,4.20
2018-07-16T02:41:14.810Z,4.20
2018-07-16T02:42:14.797Z,5.40
2018-07-16T02:43:14.786Z,2.60
2018-07-16T02:44:14.773Z,2.80
2018-07-16T02:45:14.762Z,2.20
2018-07-16T02:46:14.766Z,5.10
2018-07-16T02:47:14.731Z,2.10
2018-07-16T02:48:14.726Z,3.80
2018-07-16T02:49:14.711Z,4.20
2018-07-16T02:50:14.714Z,3.60
2018-07-16T02:51:14.686Z,2.20
2018-07-16T02:52:14.677Z,3.00
2018-07-16T02:53:14.661Z,3.50
2018-07-16T02:54:14.647Z,3.50
2018-07-16T02:55:14.669Z,2.90
2018-07-16T02:56:14.692Z,2.40
2018-07-16T02:57:14.611Z,2.20
2018-07-16T02:58:14.598Z,4.00
2018-07-16T02:59:14.592Z,1.80
2018-07-16T03:00:14.573Z,2.40
2018-07-16T03:01:14.581Z,1.90
2018-07-16T03:02:14.547Z,2.40
2018-07-16T03:03:14.537Z,2.30
2018-07-16T03:04:14.528Z,2.30
2018-07-16T03:05:14.510Z,3.00
2018-07-16T03:06:14.498Z,2.20
2018-07-16T03:07:14.501Z,4.00
2018-07-16T03:08:14.476Z,3.90
2018-07-16T03:09:14.461Z,4.60
2018-07-16T03:10:14.446Z,2.40
2018-07-16T03:11:14.437Z,3.30
2018-07-16T03:12:35.433Z,3.00
2018-07-16T03:13:14.413Z,4.00
2018-07-16T03:14:14.403Z,3.60
2018-07-16T03:15:14.381Z,4.10
2018-07-16T03:16:14.372Z,3.40
2018-07-16T03:17:14.378Z,3.00
2018-07-16T03:18:14.440Z,2.70
2018-07-16T03:19:14.332Z,3.40
2018-07-16T03:20:14.322Z,3.40
2018-07-16T03:21:14.305Z,5.20
2018-07-16T03:22:14.297Z,4.60
2018-07-16T03:23:14.298Z,4.80
2018-07-16T03:24:14.269Z,3.40
2018-07-16T03:25:14.252Z,3.50
2018-07-16T03:26:14.240Z,4.70
2018-07-16T03:27:14.231Z,5.60
2018-07-16T03:28:14.219Z,3.20
2018-07-16T03:29:14.219Z,4.60
2018-07-16T03:30:14.192Z,3.20
2018-07-16T03:31:14.182Z,4.10
2018-07-16T03:32:14.168Z,4.10
2018-07-16T03:33:14.161Z,3.50
2018-07-16T03:34:14.156Z,5.00
2018-07-16T03:35:14.128Z,4.00
2018-07-16T03:36:14.115Z,4.50
2018-07-16T03:37:14.103Z,4.20
2018-07-16T03:38:14.099Z,5.50
2018-07-16T03:39:14.097Z,3.70
2018-07-16T03:40:14.064Z,5.30
2018-07-16T03:41:14.054Z,4.00
2018-07-16T03:42:14.039Z,6.50
2018-07-16T03:43:14.023Z,3.60
2018-07-16T03:44:14.015Z,4.50
2018-07-16T03:45:14.015Z,5.40
2018-07-16T03:46:13.988Z,2.20
2018-07-16T03:47:13.973Z,3.30
2018-07-16T03:48:13.965Z,3.50
2018-07-16T03:49:13.965Z,4.90
2018-07-16T03:50:13.934Z,2.70
2018-07-16T03:51:13.921Z,3.70
2018-07-16T03:52:13.911Z,2.60
2018-07-16T03:53:13.899Z,4.80
2018-07-16T03:54:13.883Z,3.00
2018-07-16T03:55:13.887Z,5.70
2018-07-16T03:56:13.873Z,3.50
2018-07-16T03:57:13.846Z,2.80
2018-07-16T03:58:13.828Z,2.60
2018-07-16T03:59:13.819Z,4.30
2018-07-16T04:00:13.809Z,3.50
2018-07-16T04:01:13.804Z,3.50
2018-07-16T04:02:13.785Z,4.70
2018-07-16T04:03:13.782Z,4.20
2018-07-16T04:04:13.754Z,2.60
2018-07-16T04:05:13.739Z,6.00
2018-07-16T04:06:13.729Z,4.10
2018-07-16T04:07:13.734Z,4.60
2018-07-16T04:08:13.704Z,3.80
2018-07-16T04:09:13.690Z,3.30
2018-07-16T04:10:13.678Z,3.30
2018-07-16T04:11:13.668Z,2.20
2018-07-16T04:12:13.649Z,4.30
2018-07-16T04:13:13.652Z,3.70
2018-07-16T04:14:13.629Z,3.10
2018-07-16T04:15:13.612Z,4.30
2018-07-16T04:16:13.600Z,4.70
2018-07-16T04:17:13.587Z,3.80
2018-07-16T04:18:13.590Z,3.80
2018-07-16T04:19:13.563Z,5.40
2018-07-16T04:20:13.550Z,4.90
2018-07-16T04:21:13.550Z,4.10
2018-07-16T04:22:13.525Z,5.70
2018-07-16T04:23:13.525Z,3.90
2018-07-16T04:24:13.496Z,3.00
2018-07-16T04:25:13.484Z,2.90
2018-07-16T04:26:13.487Z,2.70
2018-07-16T04:27:13.458Z,4.10
2018-07-16T04:28:13.459Z,4.00
2018-07-16T04:29:13.434Z,3.50
2018-07-16T04:30:13.422Z,2.20
2018-07-16T04:31:13.424Z,3.30
2018-07-16T04:32:13.388Z,4.30
2018-07-16T04:33:13.380Z,2.40
2018-07-16T04:34:13.368Z,2.50
2018-07-16T04:35:13.355Z,2.60
2018-07-16T04:36:13.338Z,3.60
2018-07-16T04:37:13.342Z,2.50
2018-07-16T04:38:13.316Z,3.50
2018-07-16T04:39:13.301Z,4.70
2018-07-16T04:40:13.291Z,2.70
2018-07-16T04:41:13.296Z,3.20
2018-07-16T04:42:13.263Z,2.70
2018-07-16T04:43:13.263Z,3.60
2018-07-16T04:44:13.245Z,3.00
2018-07-16T04:45:13.234Z,4.70
2018-07-16T04:46:13.218Z,2.30
2018-07-16T04:47:13.220Z,2.60
2018-07-16T04:48:13.193Z,6.10
2018-07-16T04:49:13.179Z,3.50
2018-07-16T04:50:13.170Z,2.90
2018-07-16T04:51:13.166Z,2.50
2018-07-16T04:52:13.144Z,4.80
2018-07-16T04:53:13.146Z,2.30
2018-07-16T04:54:13.134Z,6.50
2018-07-16T04:55:13.111Z,2.90
2018-07-16T04:56:13.131Z,4.30
2018-07-16T04:57:13.107Z,3.10
2018-07-16T04:58:13.073Z,3.10
2018-07-16T04:59:13.073Z,3.00
2018-07-16T05:00:13.045Z,3.40
2018-07-16T05:01:13.037Z,3.90
2018-07-16T05:02:13.048Z,3.90
2018-07-16T05:03:13.112Z,3.20
2018-07-16T05:04:13.003Z,2.60
2018-07-16T05:05:12.993Z,4.70
2018-07-16T05:06:12.984Z,3.60
2018-07-16T05:07:12.968Z,3.80
2018-07-16T05:08:12.977Z,2.60
2018-07-16T05:09:12.943Z,3.20
2018-07-16T05:10:12.936Z,5.40
2018-07-16T05:11:12.926Z,3.30
2018-07-16T05:12:12.911Z,4.50
2018-07-16T05:13:12.901Z,4.80
2018-07-16T05:14:12.905Z,8.20
2018-07-16T05:15:12.889Z,4.10
2018-07-16T05:16:12.866Z,5.60
2018-07-16T05:17:12.860Z,5.60
2018-07-16T05:18:12.879Z,4.20
2018-07-16T05:19:12.836Z,4.40
2018-07-16T05:20:12.822Z,2.70
2018-07-16T05:21:12.810Z,4.00
2018-07-16T05:22:12.798Z,4.00
2018-07-16T05:23:12.803Z,4.30
2018-07-16T05:24:12.856Z,5.20
2018-07-16T05:25:12.762Z,4.40
2018-07-16T05:26:12.757Z,4.70
2018-07-16T05:27:12.743Z,3.20
2018-07-16T05:28:12.748Z,6.40
2018-07-16T05:29:12.774Z,4.60
2018-07-16T05:30:12.709Z,3.80
2018-07-16T05:31:12.699Z,5.10
2018-07-16T05:32:12.800Z,5.50
2018-07-16T05:33:12.695Z,5.00
2018-07-16T05:34:12.668Z,3.50
2018-07-16T05:35:12.652Z,7.80
2018-07-16T05:36:12.638Z,7.10
2018-07-16T05:37:12.631Z,9.30
2018-07-16T05:38:12.639Z,11.20
2018-07-16T05:39:12.611Z,10.00
2018-07-16T05:40:12.593Z,6.90
2018-07-16T05:41:12.702Z,11.60
2018-07-16T05:42:12.590Z,6.60
2018-07-16T05:43:13.453Z,8.00
2018-07-16T05:44:12.576Z,7.40
2018-07-16T05:45:12.544Z,7.00
2018-07-16T05:46:12.526Z,10.30
2018-07-16T05:47:12.538Z,5.70
2018-07-16T05:48:12.512Z,9.40
2018-07-16T05:49:12.515Z,6.70
2018-07-16T05:50:12.513Z,8.50
2018-07-16T05:51:12.484Z,8.00
2018-07-16T05:52:12.482Z,5.30
2018-07-16T05:53:12.467Z,7.90
2018-07-16T05:54:12.436Z,7.90
2018-07-16T05:55:12.490Z,8.50
2018-07-16T05:56:12.420Z,11.30
2018-07-16T05:57:12.420Z,7.10
2018-07-16T05:58:12.475Z,5.50
2018-07-16T05:59:12.395Z,8.60
2018-07-16T06:00:12.389Z,8.60
2018-07-16T06:01:12.404Z,9.80
2018-07-16T06:02:12.379Z,8.60
2018-07-16T06:03:12.379Z,7.20
2018-07-16T06:04:12.353Z,6.50
2018-07-16T06:05:12.352Z,10.70
2018-07-16T06:06:12.324Z,7.60
2018-07-16T06:07:12.321Z,9.30
2018-07-16T06:08:12.292Z,8.90
2018-07-16T06:09:12.293Z,9.60
2018-07-16T06:10:12.283Z,9.00
2018-07-16T06:11:12.274Z,9.60
2018-07-16T06:12:12.241Z,6.60
2018-07-16T06:13:12.252Z,6.10
2018-07-16T06:14:12.237Z,8.10
2018-07-16T06:15:12.290Z,8.90
2018-07-16T06:16:12.202Z,7.30
2018-07-16T06:17:12.189Z,8.00
2018-07-16T06:18:12.178Z,5.50
2018-07-16T06:19:12.168Z,5.70
2018-07-16T06:20:12.171Z,6.20
2018-07-16T06:21:12.157Z,5.00
2018-07-16T06:22:13.514Z,5.20
2018-07-16T06:23:12.125Z,5.50
2018-07-16T06:24:12.110Z,6.30
2018-07-16T06:25:12.098Z,4.80
2018-07-16T06:26:12.149Z,5.00
2018-07-16T06:27:12.080Z,6.10
2018-07-16T06:28:12.066Z,6.50
2018-07-16T06:29:12.057Z,11.70
2018-07-16T06:30:12.043Z,10.20
2018-07-16T06:31:12.059Z,6.00
2018-07-16T06:32:12.026Z,9.60
2018-07-16T06:33:12.018Z,7.80
2018-07-16T06:34:12.009Z,7.10
2018-07-16T06:35:12.012Z,7.60
2018-07-16T06:36:11.983Z,8.00
2018-07-16T06:37:11.972Z,9.50
2018-07-16T06:38:12.433Z,9.10
2018-07-16T06:39:11.950Z,9.50
2018-07-16T06:40:33.140Z,8.70
2018-07-16T06:41:12.348Z,7.50
2018-07-16T06:42:11.930Z,7.40
2018-07-16T06:43:11.911Z,9.60
2018-07-16T06:44:11.901Z,8.60
2018-07-16T06:45:11.888Z,7.20
2018-07-16T06:46:11.874Z,9.80
2018-07-16T06:47:11.884Z,9.30
2018-07-16T06:48:11.852Z,8.70
2018-07-16T06:49:11.846Z,8.70
2018-07-16T06:50:11.843Z,6.80
2018-07-16T06:51:11.819Z,8.80
2018-07-16T06:52:11.833Z,8.60
2018-07-16T06:53:11.805Z,8.60
2018-07-16T06:54:11.788Z,7.40
2018-07-16T06:55:11.825Z,10.00
2018-07-16T06:56:11.779Z,8.50
2018-07-16T06:57:11.778Z,8.40
2018-07-16T06:58:11.752Z,6.70
2018-07-16T06:59:11.794Z,5.50
2018-07-16T07:00:11.731Z,7.60
2018-07-16T07:01:11.718Z,7.50
2018-07-16T07:02:11.760Z,7.20
2018-07-16T07:03:11.724Z,6.60
2018-07-16T07:04:11.691Z,5.10
2018-07-16T07:05:11.677Z,5.80
2018-07-16T07:06:11.665Z,5.40
2018-07-16T07:07:11.661Z,7.80
2018-07-16T07:08:11.664Z,5.50
2018-07-16T07:09:11.658Z,6.80
2018-07-16T07:10:11.675Z,4.20
2018-07-16T07:11:11.614Z,9.80
2018-07-16T07:12:11.608Z,4.10
2018-07-16T07:13:11.608Z,5.60
2018-07-16T07:14:11.602Z,5.60
2018-07-16T07:15:11.574Z,8.10
2018-07-16T07:16:11.571Z,5.60
2018-07-16T07:17:11.560Z,7.00
2018-07-16T07:18:11.591Z,7.00
2018-07-16T07:19:11.540Z,9.70
2018-07-16T07:20:11.547Z,5.90
2018-07-16T07:21:11.515Z,5.70
2018-07-16T07:22:11.507Z,4.90
2018-07-16T07:23:11.500Z,8.00
2018-07-16T07:24:11.576Z,6.00
2018-07-16T07:25:11.475Z,4.90
2018-07-16T07:26:11.483Z,7.00
2018-07-16T07:27:11.452Z,7.40
2018-07-16T07:28:11.445Z,6.90
2018-07-16T07:29:11.434Z,7.70
2018-07-16T07:30:11.446Z,6.80
2018-07-16T07:31:11.419Z,8.10
2018-07-16T07:32:11.403Z,6.30
2018-07-16T07:33:11.394Z,6.40
2018-07-16T07:34:11.395Z,5.50
2018-07-16T07:35:11.417Z,6.20
2018-07-16T07:36:11.376Z,6.30
2018-07-16T07:37:11.356Z,6.90
2018-07-16T07:38:11.362Z,6.80
2018-07-16T07:39:11.337Z,5.60
2018-07-16T07:40:11.329Z,5.30
2018-07-16T07:41:11.333Z,7.30
2018-07-16T07:42:11.308Z,6.60
2018-07-16T07:43:11.297Z,6.10
2018-07-16T07:44:11.289Z,4.40
2018-07-16T07:45:11.272Z,4.30
2018-07-16T07:46:11.298Z,9.00
2018-07-16T07:47:11.257Z,5.50
2018-07-16T07:48:11.253Z,4.70
2018-07-16T07:49:11.239Z,5.80
2018-07-16T07:50:11.228Z,6.60
2018-07-16T07:51:11.221Z,6.60
2018-07-16T07:52:11.223Z,6.90
2018-07-16T07:53:11.212Z,7.60
2018-07-16T07:54:11.316Z,3.70
2018-07-16T07:55:11.544Z,6.00
2018-07-16T07:56:11.168Z,4.60
2018-07-16T07:57:11.162Z,4.20
2018-07-16T07:58:11.169Z,8.10
2018-07-16T07:59:11.146Z,4.30
2018-07-16T08:00:11.130Z,3.50
2018-07-16T08:01:11.118Z,6.50
2018-07-16T08:02:11.116Z,5.40
2018-07-16T08:03:11.184Z,3.50
2018-07-16T08:04:11.102Z,4.60
2018-07-16T08:05:11.081Z,3.50
2018-07-16T08:06:11.068Z,4.40
2018-07-16T08:07:11.061Z,4.10
2018-07-16T08:08:11.068Z,5.10
2018-07-16T08:09:11.062Z,5.70
2018-07-16T08:10:11.041Z,5.50
2018-07-16T08:11:11.028Z,3.80
2018-07-16T08:12:11.020Z,3.60
2018-07-16T08:13:11.010Z,3.20
2018-07-16T08:14:11.009Z,4.80
2018-07-16T08:15:10.991Z,3.10
2018-07-16T08:16:10.980Z,2.00
2018-07-16T08:17:10.970Z,4.20
2018-07-16T08:18:10.959Z,3.40
2018-07-16T08:19:10.969Z,2.30
2018-07-16T08:20:10.943Z,4.10
2018-07-16T08:21:10.952Z,4.20
2018-07-16T08:22:10.923Z,2.90
2018-07-16T08:23:10.913Z,2.60
2018-07-16T08:24:10.904Z,2.80
2018-07-16T08:25:10.889Z,2.10
2018-07-16T08:26:10.899Z,2.30
2018-07-16T08:27:10.875Z,3.30
2018-07-16T08:28:10.866Z,6.00
2018-07-16T08:29:10.872Z,4.00
2018-07-16T08:30:10.847Z,4.40
2018-07-16T08:31:10.843Z,2.30
2018-07-16T08:32:10.844Z,3.10
2018-07-16T08:33:10.817Z,4.00
2018-07-16T08:34:10.809Z,4.10
2018-07-16T08:35:10.802Z,5.20
2018-07-16T08:36:10.794Z,3.40
2018-07-16T08:37:10.799Z,3.80
2018-07-16T08:38:10.776Z,5.20
2018-07-16T08:39:10.840Z,4.40
2018-07-16T08:40:10.758Z,5.60
2018-07-16T08:41:10.745Z,5.60
2018-07-16T08:42:10.739Z,3.10
2018-07-16T08:43:10.749Z,5.90
2018-07-16T08:44:10.726Z,4.00
2018-07-16T08:45:10.712Z,3.60
2018-07-16T08:46:10.717Z,4.60
2018-07-16T08:47:10.696Z,4.50
2018-07-16T08:48:10.682Z,5.40
2018-07-16T08:49:10.692Z,4.50
2018-07-16T08:50:10.668Z,6.60
2018-07-16T08:51:10.682Z,4.90
2018-07-16T08:52:10.649Z,4.00
2018-07-16T08:53:10.638Z,5.10
2018-07-16T08:54:10.648Z,4.10
2018-07-16T08:55:10.622Z,5.80
2018-07-16T08:56:31.623Z,5.00
2018-07-16T08:57:10.601Z,5.70
2018-07-16T08:58:10.595Z,3.90
2018-07-16T08:59:10.651Z,3.90
2018-07-16T09:00:10.580Z,4.50
2018-07-16T09:01:10.570Z,3.30
2018-07-16T09:02:10.579Z,6.10
2018-07-16T09:03:31.577Z,3.30
2018-07-16T09:04:10.560Z,2.00
2018-07-16T09:05:10.589Z,5.10
2018-07-16T09:06:10.526Z,2.40
2018-07-16T09:07:10.617Z,3.30
2018-07-16T09:08:10.509Z,2.70
2018-07-16T09:09:10.516Z,2.50
2018-07-16T09:10:10.494Z,2.10
2018-07-16T09:11:10.493Z,3.20
2018-07-16T09:12:10.476Z,2.60
2018-07-16T09:13:10.527Z,4.30
2018-07-16T09:14:10.476Z,3.20
2018-07-16T09:15:10.457Z,1.90
2018-07-16T09:16:10.442Z,1.70
2018-07-16T09:17:10.436Z,3.80
2018-07-16T09:18:10.426Z,3.00
2018-07-16T09:19:10.443Z,2.90
2018-07-16T09:20:10.411Z,2.60
2018-07-16T09:21:10.416Z,5.10
2018-07-16T09:22:10.394Z,4.60
2018-07-16T09:23:10.386Z,3.30
2018-07-16T09:24:10.380Z,4.00
2018-07-16T09:25:10.388Z,3.50
2018-07-16T09:26:10.363Z,3.10
2018-07-16T09:27:10.360Z,3.10
2018-07-16T09:28:10.345Z,3.20
2018-07-16T09:29:10.344Z,3.50
2018-07-16T09:30:10.340Z,3.40
2018-07-16T09:31:10.346Z,3.10
2018-07-16T09:32:10.327Z,3.00
2018-07-16T09:33:10.325Z,4.00
2018-07-16T09:34:10.320Z,3.80
2018-07-16T09:35:10.316Z,4.30
2018-07-16T09:36:10.309Z,4.40
2018-07-16T09:37:10.320Z,4.00
2018-07-16T09:38:10.304Z,3.40
2018-07-16T09:39:10.361Z,2.80
2018-07-16T09:40:10.317Z,3.10
2018-07-16T09:41:10.300Z,3.00
2018-07-16T09:42:10.293Z,3.80
2018-07-16T09:43:10.321Z,2.60
2018-07-16T09:44:10.292Z,5.60
2018-07-16T09:45:10.289Z,2.90
2018-07-16T09:46:10.289Z,4.80
2018-07-16T09:47:10.293Z,2.90
2018-07-16T09:48:10.287Z,3.10
2018-07-16T09:49:10.308Z,2.60
2018-07-16T09:50:10.285Z,5.30
2018-07-16T09:51:10.285Z,4.30
2018-07-16T09:52:10.290Z,3.80
2018-07-16T09:53:10.295Z,2.60
2018-07-16T09:54:10.290Z,3.60
2018-07-16T09:55:10.301Z,2.80
2018-07-16T09:56:10.352Z,5.20
2018-07-16T09:57:10.284Z,4.00
2018-07-16T09:58:10.279Z,3.40
2018-07-16T09:59:10.298Z,2.80
2018-07-16T10:00:10.301Z,4.20
2018-07-16T10:01:10.300Z,3.10
2018-07-16T10:02:10.289Z,2.60
2018-07-16T10:03:10.286Z,2.30
2018-07-16T10:04:10.289Z,2.60
2018-07-16T10:05:10.306Z,2.30
2018-07-16T10:06:10.304Z,2.20
2018-07-16T10:07:10.291Z,1.80
2018-07-16T10:08:10.298Z,2.50
2018-07-16T10:09:10.296Z,2.60
2018-07-16T10:10:10.310Z,1.20
2018-07-16T10:11:10.296Z,2.10
2018-07-16T10:12:10.313Z,1.50
2018-07-16T10:13:10.297Z,2.20
2018-07-16T10:14:10.304Z,2.10
2018-07-16T10:15:10.298Z,5.00
2018-07-16T10:16:10.327Z,3.30
2018-07-16T10:17:10.306Z,2.40
2018-07-16T10:18:10.308Z,2.70
2018-07-16T10:19:10.310Z,3.70
2018-07-16T10:20:10.332Z,2.70
2018-07-16T10:21:10.328Z,3.30
2018-07-16T10:22:10.314Z,3.50
2018-07-16T10:23:10.329Z,2.20
2018-07-16T10:24:10.318Z,2.90
2018-07-16T10:25:10.323Z,2.90
2018-07-16T10:26:10.327Z,3.80
2018-07-16T10:27:10.341Z,2.20
2018-07-16T10:28:10.328Z,2.20
2018-07-16T10:29:10.348Z,4.10
2018-07-16T10:30:10.342Z,2.50
2018-07-16T10:31:10.333Z,2.20
2018-07-16T10:32:10.364Z,2.70
2018-07-16T10:33:10.344Z,1.50
2018-07-16T10:34:10.344Z,3.00
2018-07-16T10:35:10.343Z,2.10
2018-07-16T10:36:10.350Z,1.70
2018-07-16T10:37:10.354Z,3.20
2018-07-16T10:38:10.368Z,1.90
2018-07-16T10:39:10.364Z,2.90
2018-07-16T10:40:10.362Z,2.50
2018-07-16T10:41:10.362Z,2.10
2018-07-16T10:42:10.373Z,2.70
2018-07-16T10:43:10.386Z,2.20
2018-07-16T10:44:10.367Z,2.00
2018-07-16T10:45:10.374Z,3.00
2018-07-16T10:46:10.376Z,4.30
2018-07-16T10:47:10.385Z,3.50
2018-07-16T10:48:10.385Z,1.50
2018-07-16T10:49:10.402Z,1.70
2018-07-16T10:50:10.388Z,2.60
2018-07-16T10:51:10.397Z,1.80
2018-07-16T10:52:10.394Z,2.60
2018-07-16T10:53:10.399Z,1.60
2018-07-16T10:54:10.421Z,2.60
2018-07-16T10:55:10.427Z,1.60
2018-07-16T10:56:10.419Z,1.10
2018-07-16T10:57:10.417Z,2.30
2018-07-16T10:58:10.422Z,2.10
2018-07-16T10:59:10.421Z,1.30
2018-07-16T11:00:10.428Z,2.70
2018-07-16T11:01:10.451Z,1.80
2018-07-16T11:02:10.433Z,1.90
2018-07-16T11:03:10.481Z,1.80
2018-07-16T11:04:10.440Z,3.20
2018-07-16T11:05:10.449Z,3.00
2018-07-16T11:06:10.455Z,2.00
2018-07-16T11:07:10.464Z,1.60
2018-07-16T11:08:10.455Z,1.30
2018-07-16T11:09:10.457Z,1.40
2018-07-16T11:10:10.482Z,2.60
2018-07-16T11:11:10.466Z,2.80
2018-07-16T11:12:10.473Z,1.80
2018-07-16T11:13:10.479Z,1.30
2018-07-16T11:14:10.478Z,1.60
2018-07-16T11:15:10.599Z,1.60
2018-07-16T11:16:10.499Z,2.00
2018-07-16T11:17:10.509Z,2.10
2018-07-16T11:18:10.501Z,1.10
2018-07-16T11:19:10.503Z,1.90
2018-07-16T11:20:10.506Z,1.50
2018-07-16T11:21:10.527Z,1.20
2018-07-16T11:22:10.516Z,3.90
2018-07-16T11:23:10.519Z,3.70
2018-07-16T11:24:10.523Z,2.60
2018-07-16T11:25:10.533Z,2.90
2018-07-16T11:26:10.558Z,2.00
2018-07-16T11:27:10.539Z,3.90
2018-07-16T11:28:10.536Z,2.90
2018-07-16T11:29:10.543Z,3.30
2018-07-16T11:30:10.553Z,2.70
2018-07-16T11:31:10.550Z,1.80
2018-07-16T11:32:10.578Z,8.30
2018-07-16T11:33:10.579Z,25.50
2018-07-16T11:34:10.561Z,13.10
2018-07-16T11:35:10.569Z,5.50
2018-07-16T11:36:10.570Z,3.50
2018-07-16T11:37:10.577Z,3.20
2018-07-16T11:38:10.610Z,4.50
2018-07-16T11:39:10.588Z,4.30
2018-07-16T11:40:10.581Z,4.30
2018-07-16T11:41:10.596Z,2.70
2018-07-16T11:42:10.637Z,2.60
2018-07-16T11:43:10.615Z,3.10
2018-07-16T11:44:10.613Z,2.80
2018-07-16T11:45:10.605Z,4.50
2018-07-16T11:46:10.664Z,3.10
2018-07-16T11:47:10.613Z,2.70
2018-07-16T11:48:10.624Z,4.90
2018-07-16T11:49:10.640Z,2.10
2018-07-16T11:50:10.638Z,3.30
2018-07-16T11:51:10.645Z,1.80
2018-07-16T11:52:10.654Z,1.80
2018-07-16T11:53:10.646Z,2.40
2018-07-16T11:54:10.645Z,3.90
2018-07-16T11:55:10.664Z,3.60
2018-07-16T11:56:10.645Z,2.30
2018-07-16T11:57:10.653Z,2.70
2018-07-16T11:58:10.657Z,2.20
2018-07-16T11:59:10.670Z,2.90
2018-07-16T12:00:10.684Z,1.70
2018-07-16T12:01:10.668Z,3.20
2018-07-16T12:02:10.673Z,3.90
2018-07-16T12:03:10.678Z,3.30
2018-07-16T12:04:10.695Z,2.90
2018-07-16T12:05:10.755Z,3.50
2018-07-16T12:06:10.695Z,3.90
2018-07-16T12:07:10.693Z,3.20
2018-07-16T12:08:10.696Z,6.70
2018-07-16T12:09:10.698Z,3.20
2018-07-16T12:10:10.712Z,2.80
2018-07-16T12:11:10.722Z,3.10
2018-07-16T12:12:10.768Z,3.40
2018-07-16T12:13:10.722Z,3.80
2018-07-16T12:14:10.717Z,3.30
2018-07-16T12:15:10.735Z,5.80
2018-07-16T12:16:10.721Z,4.40
2018-07-16T12:17:10.739Z,4.40
2018-07-16T12:18:10.730Z,4.40
2018-07-16T12:19:10.734Z,4.60
2018-07-16T12:20:10.739Z,3.00
2018-07-16T12:21:10.757Z,3.40
2018-07-16T12:22:10.745Z,3.20
2018-07-16T12:23:10.751Z,2.10
2018-07-16T12:24:10.748Z,2.20
2018-07-16T12:25:10.752Z,3.30
2018-07-16T12:26:10.770Z,3.60
2018-07-16T12:27:10.777Z,3.30
2018-07-16T12:28:10.758Z,3.80
2018-07-16T12:29:10.762Z,3.60
2018-07-16T12:30:10.759Z,7.30
2018-07-16T12:31:10.767Z,5.60
2018-07-16T12:32:10.783Z,6.80
2018-07-16T12:33:10.764Z,6.00
2018-07-16T12:34:10.767Z,6.40
2018-07-16T12:35:10.777Z,5.30
2018-07-16T12:36:10.774Z,5.70
2018-07-16T12:37:10.771Z,5.30
2018-07-16T12:38:10.791Z,5.10
2018-07-16T12:39:10.788Z,3.80
2018-07-16T12:40:10.773Z,6.00
2018-07-16T12:41:10.773Z,3.30
2018-07-16T12:42:10.777Z,4.80
2018-07-16T12:43:10.777Z,5.40
2018-07-16T12:44:10.780Z,5.60
2018-07-16T12:45:10.798Z,8.50
2018-07-16T12:46:10.802Z,4.00
2018-07-16T12:47:10.782Z,7.70
2018-07-16T12:48:10.827Z,4.50
2018-07-16T12:49:10.785Z,5.10
2018-07-16T12:50:10.785Z,5.60
2018-07-16T12:51:10.803Z,6.00
2018-07-16T12:52:10.788Z,4.90
2018-07-16T12:53:10.792Z,4.00
2018-07-16T12:54:10.794Z,3.80
2018-07-16T12:55:10.791Z,4.70
2018-07-16T12:56:10.806Z,6.10
2018-07-16T12:57:10.852Z,6.80
2018-07-16T12:58:10.819Z,5.00
2018-07-16T12:59:10.798Z,5.50
2018-07-16T13:00:10.800Z,7.20
2018-07-16T13:01:10.801Z,3.80
2018-07-16T13:02:10.808Z,4.00
2018-07-16T13:03:10.817Z,4.70
2018-07-16T13:04:10.808Z,6.00
2018-07-16T13:05:10.808Z,6.20
2018-07-16T13:06:10.865Z,2.70
2018-07-16T13:07:10.810Z,5.20
2018-07-16T13:08:10.821Z,4.20
2018-07-16T13:09:10.827Z,4.50
2018-07-16T13:10:10.816Z,3.20
2018-07-16T13:11:10.813Z,6.60
2018-07-16T13:12:10.815Z,3.30
2018-07-16T13:13:10.830Z,5.60
2018-07-16T13:14:10.819Z,4.90
2018-07-16T13:15:10.817Z,5.20
2018-07-16T13:16:10.838Z,4.30
2018-07-16T13:17:10.821Z,2.60
2018-07-16T13:18:10.823Z,3.90